Time;durP1;ratioP1;P1;durP2;ratioP2;P2;SDS_P1;SDS_P2;PMS_P1;PMS_P2;Temp;Humidity;BMP_temperature;BMP_pressure;BME280_temperature;BME280_humidity;BME280_pressure;Samples;Min_cycle;Max_cycle;Signal;HPM_P1;HPM_P2
2020/12/19 00:01:07;;;;;;;20.63;13.40;;;4.40;99.90;;;;;;6200865;28;20820;-61
2020/12/19 00:04:09;;;;;;;19.73;14.00;;;4.40;99.90;;;;;;6201389;28;20472;-60
2020/12/19 00:07:12;;;;;;;25.00;14.53;;;4.40;99.90;;;;;;6200896;28;20473;-60
2020/12/19 00:10:14;;;;;;;18.07;13.80;;;4.50;99.90;;;;;;6200778;28;20819;-60
2020/12/19 00:13:17;;;;;;;18.50;13.00;;;4.50;99.90;;;;;;6200753;28;21062;-61
2020/12/19 00:16:19;;;;;;;19.97;13.70;;;4.40;99.90;;;;;;6200998;28;20455;-60
2020/12/19 00:19:22;;;;;;;24.10;15.50;;;4.30;99.90;;;;;;6200362;28;20953;-60
2020/12/19 00:22:25;;;;;;;18.03;12.50;;;4.30;99.90;;;;;;6201030;28;20526;-59
2020/12/19 00:25:28;;;;;;;20.60;12.73;;;4.30;99.90;;;;;;6201026;28;20471;-59
2020/12/19 00:28:30;;;;;;;18.43;13.53;;;4.20;99.90;;;;;;6201094;28;20481;-59
2020/12/19 00:31:33;;;;;;;19.00;13.63;;;4.20;99.90;;;;;;6200605;28;20528;-61
2020/12/19 00:34:35;;;;;;;21.53;14.40;;;4.20;99.90;;;;;;6203086;28;20445;-60
2020/12/19 00:37:43;;;;;;;22.07;14.63;;;4.20;99.90;;;;;;6209136;28;21821;-59
2020/12/19 00:40:45;;;;;;;18.03;14.20;;;4.20;99.90;;;;;;6208879;28;20472;-60
2020/12/19 00:43:48;;;;;;;22.60;16.67;;;4.20;99.90;;;;;;6208970;28;20468;-59
2020/12/19 00:46:51;;;;;;;22.00;14.00;;;4.10;99.90;;;;;;6209085;28;20479;-59
2020/12/19 00:49:53;;;;;;;16.70;13.60;;;4.20;99.90;;;;;;6208545;28;20473;-59
2020/12/19 00:52:57;;;;;;;20.77;15.17;;;4.20;99.90;;;;;;6208523;28;20491;-59
2020/12/19 00:55:59;;;;;;;24.73;14.80;;;4.20;99.90;;;;;;6208845;28;20468;-60
2020/12/19 00:59:02;;;;;;;16.17;13.30;;;4.20;99.90;;;;;;6208576;28;21023;-61
2020/12/19 01:02:04;;;;;;;15.63;12.20;;;4.30;99.90;;;;;;6208877;28;20645;-60
2020/12/19 01:05:08;;;;;;;19.10;13.43;;;4.30;99.90;;;;;;6208841;28;20556;-61
2020/12/19 01:08:12;;;;;;;16.10;13.03;;;4.30;99.90;;;;;;6208314;28;20849;-62
2020/12/19 01:11:15;;;;;;;19.73;12.57;;;4.30;99.90;;;;;;6208173;28;20510;-61
2020/12/19 01:14:18;;;;;;;21.70;14.20;;;4.30;99.90;;;;;;6208297;28;20815;-62
2020/12/19 01:17:20;;;;;;;21.80;14.37;;;4.30;99.90;;;;;;6208144;28;20485;-60
2020/12/19 01:20:22;;;;;;;20.27;13.70;;;4.40;99.90;;;;;;6208611;28;20480;-61
2020/12/19 01:23:25;;;;;;;18.93;13.50;;;4.40;99.90;;;;;;6208748;28;20481;-60
2020/12/19 01:26:27;;;;;;;21.10;14.13;;;4.50;99.90;;;;;;6208170;28;20476;-61
2020/12/19 01:29:32;;;;;;;20.37;14.07;;;4.50;99.90;;;;;;6208199;28;20484;-61
2020/12/19 01:32:37;;;;;;;18.43;13.80;;;4.60;99.90;;;;;;6208660;28;20473;-60
2020/12/19 01:35:39;;;;;;;21.13;11.67;;;4.50;99.90;;;;;;6208254;28;20477;-61
2020/12/19 01:38:43;;;;;;;17.73;12.77;;;4.40;99.90;;;;;;6206411;28;20476;-60
2020/12/19 01:41:45;;;;;;;21.23;14.20;;;4.40;99.90;;;;;;6206211;28;20476;-60
2020/12/19 01:44:47;;;;;;;22.83;12.97;;;4.40;99.90;;;;;;6206306;28;20864;-60
2020/12/19 01:47:49;;;;;;;20.67;11.30;;;4.30;99.90;;;;;;6212672;28;20829;-60
2020/12/19 01:50:53;;;;;;;18.33;12.10;;;4.30;99.90;;;;;;6205863;28;20980;-60
2020/12/19 01:53:57;;;;;;;15.80;10.13;;;4.20;99.90;;;;;;6227822;28;20539;-60
2020/12/19 01:57:00;;;;;;;15.50;10.30;;;4.20;99.90;;;;;;6223258;28;20473;-60
2020/12/19 02:00:02;;;;;;;15.87;10.50;;;4.20;99.90;;;;;;6218287;28;20655;-60
2020/12/19 02:03:05;;;;;;;16.37;11.57;;;4.20;99.90;;;;;;6215536;28;20480;-60
2020/12/19 02:06:24;;;;;;;17.50;12.27;;;4.20;99.90;;;;;;6205696;28;20477;-60
2020/12/19 02:09:30;;;;;;;18.50;11.80;;;4.20;99.90;;;;;;6204733;28;20507;-60
2020/12/19 02:12:32;;;;;;;21.37;12.30;;;4.20;99.90;;;;;;6214790;28;20468;-60
2020/12/19 02:15:41;;;;;;;16.43;10.47;;;4.20;99.90;;;;;;6222288;28;20965;-60
2020/12/19 02:18:43;;;;;;;15.73;11.57;;;4.20;99.90;;;;;;6211249;28;20500;-60
2020/12/19 02:21:45;;;;;;;15.53;9.90;;;4.10;99.90;;;;;;6219029;28;20480;-59
2020/12/19 02:24:48;;;;;;;22.53;12.40;;;4.10;99.90;;;;;;6216359;28;20473;-61
2020/12/19 02:27:51;;;;;;;20.17;11.17;;;4.20;99.90;;;;;;6210663;28;20468;-59
2020/12/19 02:30:53;;;;;;;19.83;11.13;;;4.20;99.90;;;;;;6213009;28;20619;-59
2020/12/19 02:33:55;;;;;;;19.97;10.80;;;4.10;99.90;;;;;;6213757;28;20476;-60
2020/12/19 02:36:58;;;;;;;26.37;11.30;;;4.00;99.90;;;;;;6215449;28;20952;-60
2020/12/19 02:40:01;;;;;;;18.00;10.43;;;4.00;99.90;;;;;;6211507;28;20485;-60
2020/12/19 02:43:03;;;;;;;21.33;10.90;;;4.00;99.90;;;;;;6219985;28;20468;-60
2020/12/19 02:46:05;;;;;;;16.07;10.37;;;4.00;99.90;;;;;;6210827;28;20971;-60
2020/12/19 02:49:07;;;;;;;23.97;11.60;;;3.80;99.90;;;;;;6215322;28;20483;-58
2020/12/19 02:52:10;;;;;;;26.60;12.07;;;3.90;99.90;;;;;;6212536;28;20487;-60
2020/12/19 02:55:13;;;;;;;18.20;10.73;;;3.90;99.90;;;;;;6210823;28;20472;-60
2020/12/19 02:58:15;;;;;;;19.80;12.37;;;3.90;99.90;;;;;;6217909;28;21023;-59
2020/12/19 03:01:17;;;;;;;17.73;11.27;;;3.90;99.90;;;;;;6205337;28;20477;-59
2020/12/19 03:04:19;;;;;;;23.53;11.70;;;3.80;99.90;;;;;;6202912;28;20464;-60
2020/12/19 03:07:21;;;;;;;22.03;12.03;;;3.90;99.90;;;;;;6202922;28;20449;-60
2020/12/19 03:10:24;;;;;;;12.57;10.10;;;3.80;99.90;;;;;;6202534;28;20461;-60
2020/12/19 03:13:27;;;;;;;20.17;10.33;;;3.90;99.90;;;;;;6202725;28;20460;-60
2020/12/19 03:16:29;;;;;;;14.40;9.97;;;3.90;99.90;;;;;;6202479;28;20445;-60
2020/12/19 03:19:31;;;;;;;17.17;11.67;;;3.80;99.90;;;;;;6222007;28;20433;-60
2020/12/19 03:22:33;;;;;;;13.80;9.70;;;3.80;99.90;;;;;;6209201;28;20437;-59
2020/12/19 03:25:36;;;;;;;13.90;9.97;;;3.80;99.90;;;;;;6221427;28;20524;-58
2020/12/19 03:28:38;;;;;;;14.50;9.03;;;3.90;99.90;;;;;;6213036;28;20492;-57
2020/12/19 03:31:41;;;;;;;19.80;10.80;;;3.80;99.90;;;;;;6219804;28;20479;-59
2020/12/19 03:34:43;;;;;;;15.33;9.30;;;3.90;99.90;;;;;;6218151;28;20471;-60
2020/12/19 03:37:45;;;;;;;15.23;10.10;;;3.80;99.90;;;;;;6217547;28;20468;-59
2020/12/19 03:40:48;;;;;;;10.87;8.83;;;3.90;99.90;;;;;;6216338;28;20499;-59
2020/12/19 03:43:54;;;;;;;11.07;8.37;;;3.80;99.90;;;;;;6222160;28;20479;-58
2020/12/19 03:46:56;;;;;;;13.30;8.97;;;3.80;99.90;;;;;;6211776;28;20471;-58
2020/12/19 03:49:59;;;;;;;16.17;8.67;;;3.80;99.90;;;;;;6217726;28;20472;-58
2020/12/19 03:53:01;;;;;;;10.30;8.00;;;3.80;99.90;;;;;;6207907;28;20465;-59
2020/12/19 03:56:04;;;;;;;10.50;7.23;;;3.80;99.90;;;;;;6214754;28;20583;-60
2020/12/19 03:59:06;;;;;;;10.30;8.10;;;3.80;99.90;;;;;;6198502;28;20472;-60
2020/12/19 04:02:08;;;;;;;12.00;8.27;;;3.80;99.90;;;;;;6218429;28;20968;-60
2020/12/19 04:05:11;;;;;;;11.20;7.70;;;3.80;99.90;;;;;;6209024;28;20467;-60
2020/12/19 04:08:13;;;;;;;12.40;8.40;;;3.80;99.90;;;;;;6210845;28;20488;-59
2020/12/19 04:11:16;;;;;;;11.20;9.10;;;3.70;99.90;;;;;;6205096;28;20481;-59
2020/12/19 04:14:19;;;;;;;11.50;9.10;;;3.50;99.90;;;;;;6218907;28;20473;-59
2020/12/19 04:17:21;;;;;;;9.07;7.50;;;3.60;99.90;;;;;;6205933;28;20976;-59
2020/12/19 04:20:23;;;;;;;8.90;6.97;;;3.70;99.90;;;;;;6202083;28;20496;-60
2020/12/19 04:23:27;;;;;;;9.33;7.70;;;3.70;99.90;;;;;;6201051;28;20475;-60
2020/12/19 04:26:30;;;;;;;10.50;7.73;;;3.70;99.90;;;;;;6201247;28;20473;-60
2020/12/19 04:29:33;;;;;;;9.43;6.67;;;3.70;99.90;;;;;;6201313;28;20524;-59
2020/12/19 04:32:35;;;;;;;7.37;5.70;;;3.80;99.90;;;;;;6201044;28;20487;-60
2020/12/19 04:35:37;;;;;;;6.77;6.10;;;3.90;99.90;;;;;;6200922;28;20472;-60
2020/12/19 04:38:39;;;;;;;6.40;5.20;;;4.00;99.90;;;;;;6200233;28;20473;-60
2020/12/19 04:41:43;;;;;;;7.03;5.20;;;4.00;99.90;;;;;;6205875;28;20468;-60
2020/12/19 04:44:46;;;;;;;6.10;5.50;;;4.10;99.90;;;;;;6213879;28;20569;-60
2020/12/19 04:47:49;;;;;;;6.57;5.40;;;4.00;99.90;;;;;;6207115;28;20465;-59
2020/12/19 04:50:51;;;;;;;8.40;5.90;;;4.10;99.90;;;;;;6212683;28;20483;-60
2020/12/19 04:53:56;;;;;;;7.10;5.40;;;4.00;99.90;;;;;;6212711;28;20465;-59
2020/12/19 04:57:00;;;;;;;6.23;5.07;;;4.00;99.90;;;;;;6211641;28;20479;-61
2020/12/19 05:00:04;;;;;;;7.03;6.03;;;4.10;99.90;;;;;;6208502;28;20495;-60
2020/12/19 05:03:07;;;;;;;8.33;6.30;;;4.20;99.90;;;;;;6205214;28;20460;-60
2020/12/19 05:06:10;;;;;;;10.07;7.20;;;4.20;99.90;;;;;;6212174;28;20482;-60
2020/12/19 05:09:12;;;;;;;8.13;6.93;;;4.20;99.90;;;;;;6212556;28;20484;-60
2020/12/19 05:12:15;;;;;;;8.30;6.40;;;4.20;99.90;;;;;;6211647;28;20774;-60
2020/12/19 05:15:17;;;;;;;7.40;5.80;;;4.30;99.90;;;;;;6213311;28;20469;-59
2020/12/19 05:18:19;;;;;;;7.27;6.03;;;4.30;99.90;;;;;;6210649;28;20484;-60
2020/12/19 05:21:24;;;;;;;7.80;6.40;;;4.40;99.90;;;;;;6210460;28;20472;-60
2020/12/19 05:24:31;;;;;;;7.30;5.60;;;4.30;99.90;;;;;;6216198;28;20791;-60
2020/12/19 05:27:35;;;;;;;10.70;6.10;;;4.40;99.90;;;;;;6216215;28;20464;-60
2020/12/19 05:30:37;;;;;;;7.90;6.20;;;4.50;99.90;;;;;;6216379;28;20464;-60
2020/12/19 05:33:40;;;;;;;7.27;6.43;;;4.50;99.90;;;;;;6219397;28;20807;-58
2020/12/19 05:36:43;;;;;;;9.23;6.30;;;4.50;99.90;;;;;;6214769;28;20491;-60
2020/12/19 05:39:51;;;;;;;8.73;5.97;;;4.50;99.90;;;;;;6216114;28;20806;-61
2020/12/19 05:42:57;;;;;;;8.27;6.30;;;4.50;99.90;;;;;;6227439;28;21039;-61
2020/12/19 05:45:59;;;;;;;7.30;6.20;;;4.50;99.90;;;;;;6219405;28;20469;-60
2020/12/19 05:49:03;;;;;;;8.03;6.40;;;4.50;99.90;;;;;;6215043;28;20479;-58
2020/12/19 05:52:09;;;;;;;7.33;5.50;;;4.50;99.90;;;;;;6229591;28;20551;-59
2020/12/19 05:55:12;;;;;;;8.37;5.87;;;4.60;99.90;;;;;;6228742;28;20476;-60
2020/12/19 05:58:18;;;;;;;7.97;5.90;;;4.60;99.90;;;;;;6228967;28;20964;-59
2020/12/19 06:01:21;;;;;;;8.00;6.37;;;4.60;99.90;;;;;;6228553;28;20495;-60
2020/12/19 06:04:24;;;;;;;6.57;5.63;;;4.60;99.90;;;;;;6219340;28;20460;-59
2020/12/19 06:07:29;;;;;;;6.57;5.40;;;4.60;99.90;;;;;;6228811;28;20440;-59
2020/12/19 06:10:32;;;;;;;6.57;5.13;;;4.60;99.90;;;;;;6228060;28;20983;-60
2020/12/19 06:13:39;;;;;;;7.10;5.40;;;4.60;99.90;;;;;;6228144;28;20448;-59
2020/12/19 06:16:44;;;;;;;8.87;6.20;;;4.60;99.90;;;;;;6228340;28;20567;-59
2020/12/19 06:19:48;;;;;;;6.40;5.80;;;4.70;99.90;;;;;;6228390;28;20464;-59
2020/12/19 06:22:50;;;;;;;9.60;6.43;;;4.70;99.90;;;;;;6228569;28;20468;-60
2020/12/19 06:25:54;;;;;;;8.07;7.17;;;4.70;99.90;;;;;;6227962;28;20476;-60
2020/12/19 06:28:57;;;;;;;8.43;7.27;;;4.80;99.90;;;;;;6228058;28;20476;-60
2020/12/19 06:32:00;;;;;;;7.20;6.30;;;4.80;99.90;;;;;;6227244;28;20475;-58
2020/12/19 06:35:04;;;;;;;6.10;5.40;;;4.80;99.90;;;;;;6208808;28;20976;-60
2020/12/19 06:38:06;;;;;;;7.70;6.13;;;4.70;99.90;;;;;;6210791;28;20472;-59
2020/12/19 06:41:09;;;;;;;7.60;6.67;;;4.70;99.90;;;;;;6210831;28;20488;-60
2020/12/19 06:44:15;;;;;;;7.10;5.70;;;4.70;99.90;;;;;;6219350;28;20486;-59
2020/12/19 06:47:19;;;;;;;6.20;5.43;;;4.70;99.90;;;;;;6221068;28;20464;-59
2020/12/19 06:50:22;;;;;;;7.20;6.00;;;4.70;99.90;;;;;;6203222;28;20480;-60
2020/12/19 06:53:26;;;;;;;10.00;6.93;;;4.70;99.90;;;;;;6203076;28;20469;-59
2020/12/19 06:56:28;;;;;;;12.27;6.60;;;4.60;99.90;;;;;;6208217;28;20469;-59
2020/12/19 06:59:33;;;;;;;9.03;5.80;;;4.70;99.90;;;;;;6203048;28;20477;-59
2020/12/19 07:02:49;;;;;;;6.13;5.53;;;4.70;99.90;;;;;;6202819;28;20559;-59
2020/12/19 07:06:07;;;;;;;6.80;5.63;;;4.70;99.90;;;;;;6203244;28;20483;-59
2020/12/19 07:09:30;;;;;;;6.57;5.87;;;4.70;99.90;;;;;;6198649;28;20512;-61
2020/12/19 07:12:35;;;;;;;10.00;6.37;;;4.70;99.90;;;;;;6204189;28;20484;-61
2020/12/19 07:15:45;;;;;;;10.00;6.90;;;4.70;99.90;;;;;;6226871;28;20472;-60
2020/12/19 07:18:47;;;;;;;8.20;5.90;;;4.60;99.90;;;;;;6226534;28;20968;-61
2020/12/19 07:21:49;;;;;;;8.80;7.40;;;4.70;99.90;;;;;;6226677;28;20476;-60
2020/12/19 07:24:52;;;;;;;8.20;6.43;;;4.70;99.90;;;;;;6226897;28;20475;-59
2020/12/19 07:27:56;;;;;;;8.73;7.53;;;4.70;99.90;;;;;;6226468;28;20850;-61
2020/12/19 07:30:59;;;;;;;8.63;6.40;;;4.80;99.90;;;;;;6226025;28;20813;-60
2020/12/19 07:34:01;;;;;;;7.83;6.37;;;4.80;99.90;;;;;;6226036;28;20495;-60
2020/12/19 07:37:04;;;;;;;8.63;6.97;;;4.80;99.90;;;;;;6226201;28;20505;-61
2020/12/19 07:40:07;;;;;;;9.60;6.80;;;4.80;99.90;;;;;;6225915;28;20479;-61
2020/12/19 07:43:11;;;;;;;7.70;6.30;;;4.80;99.90;;;;;;6226086;28;20468;-59
2020/12/19 07:46:14;;;;;;;8.47;6.93;;;4.80;99.90;;;;;;6226341;28;20478;-59
2020/12/19 07:49:44;;;;;;;12.23;8.23;;;4.90;99.90;;;;;;6225734;28;21086;-59
2020/12/19 07:52:46;;;;;;;10.93;8.00;;;4.80;99.90;;;;;;6226442;28;20460;-60
2020/12/19 07:55:50;;;;;;;11.83;9.93;;;4.80;99.90;;;;;;6223772;28;20535;-59
2020/12/19 07:58:53;;;;;;;14.50;10.87;;;4.80;99.90;;;;;;6206812;28;20471;-59
2020/12/19 08:01:57;;;;;;;13.50;10.30;;;4.90;99.90;;;;;;6220357;28;20486;-60
2020/12/19 08:04:59;;;;;;;14.80;11.93;;;4.90;99.90;;;;;;6211059;28;20493;-59
2020/12/19 08:08:01;;;;;;;10.00;7.93;;;4.90;99.90;;;;;;6203744;28;20473;-59
2020/12/19 08:11:04;;;;;;;11.20;8.70;;;4.90;99.90;;;;;;6201622;28;20483;-57
2020/12/19 08:14:07;;;;;;;11.43;8.40;;;5.00;99.90;;;;;;6192560;28;20473;-60
2020/12/19 08:17:17;;;;;;;11.80;9.17;;;5.00;99.90;;;;;;6201158;28;21083;-61
2020/12/19 08:20:23;;;;;;;11.97;8.40;;;5.00;99.90;;;;;;6201387;28;20507;-61
2020/12/19 08:23:25;;;;;;;8.73;7.07;;;5.00;99.90;;;;;;6201089;28;20483;-61
2020/12/19 08:26:27;;;;;;;10.80;7.70;;;5.00;99.90;;;;;;6201452;28;20465;-61
2020/12/19 08:29:29;;;;;;;9.83;8.17;;;5.00;99.90;;;;;;6201079;28;20815;-62
2020/12/19 08:32:33;;;;;;;10.53;7.63;;;5.00;99.90;;;;;;6201268;28;20562;-64
2020/12/19 08:35:39;;;;;;;9.57;7.80;;;5.00;99.90;;;;;;6200960;28;20488;-61
2020/12/19 08:38:41;;;;;;;13.33;8.63;;;4.90;99.90;;;;;;6201019;28;20552;-61
2020/12/19 08:41:44;;;;;;;9.10;7.30;;;5.00;99.90;;;;;;6201183;28;20515;-66
2020/12/19 08:44:47;;;;;;;10.57;7.87;;;5.00;99.90;;;;;;6200890;28;20476;-61
2020/12/19 08:47:56;;;;;;;10.00;7.80;;;5.10;99.90;;;;;;6201102;28;20567;-60
2020/12/19 08:50:58;;;;;;;9.43;6.90;;;5.10;99.90;;;;;;6200532;28;20468;-61
2020/12/19 08:54:10;;;;;;;8.23;7.00;;;5.10;99.90;;;;;;6200554;28;20484;-62
2020/12/19 08:57:26;;;;;;;11.73;7.87;;;5.20;99.90;;;;;;6204497;28;20957;-62
2020/12/19 09:00:34;;;;;;;11.80;7.67;;;5.20;99.90;;;;;;6205577;28;20848;-64
2020/12/19 09:03:37;;;;;;;10.43;8.13;;;5.20;99.90;;;;;;6205593;28;20479;-60
2020/12/19 09:06:46;;;;;;;10.23;8.30;;;5.20;99.90;;;;;;6205437;28;20476;-60
2020/12/19 09:09:49;;;;;;;11.73;7.97;;;5.20;99.90;;;;;;6205415;28;20485;-61
2020/12/19 09:13:15;;;;;;;10.53;9.43;;;5.20;99.90;;;;;;6205206;28;21026;-61
2020/12/19 09:16:17;;;;;;;9.33;6.63;;;5.30;99.90;;;;;;6205413;28;20469;-62
2020/12/19 09:19:20;;;;;;;7.47;5.97;;;5.20;99.90;;;;;;6196082;28;20488;-60
2020/12/19 09:22:23;;;;;;;13.33;8.60;;;5.10;99.90;;;;;;6205025;28;20457;-61
2020/12/19 09:25:25;;;;;;;13.90;7.90;;;5.10;99.90;;;;;;6205059;28;20460;-61
2020/12/19 09:28:28;;;;;;;7.63;6.40;;;5.20;99.90;;;;;;6205167;28;20461;-61
2020/12/19 09:31:31;;;;;;;7.17;6.00;;;5.20;99.90;;;;;;6205051;28;20465;-61
2020/12/19 09:34:34;;;;;;;6.57;5.83;;;5.30;99.90;;;;;;6205122;28;20445;-62
2020/12/19 09:37:36;;;;;;;7.53;6.17;;;5.30;99.90;;;;;;6204464;28;20475;-61
2020/12/19 09:40:56;;;;;;;10.87;6.50;;;5.30;99.90;;;;;;6204763;28;20477;-61
2020/12/19 09:43:59;;;;;;;9.30;6.23;;;5.40;99.90;;;;;;6204914;28;21024;-59
2020/12/19 09:47:01;;;;;;;6.33;5.47;;;5.30;99.90;;;;;;6204707;28;20479;-61
2020/12/19 09:50:04;;;;;;;9.43;8.10;;;5.40;99.90;;;;;;6204698;28;20473;-62
2020/12/19 09:53:06;;;;;;;7.40;6.40;;;5.50;99.90;;;;;;6204427;28;20473;-62
2020/12/19 09:56:08;;;;;;;11.30;7.77;;;5.50;99.90;;;;;;6204394;28;20477;-61
2020/12/19 09:59:11;;;;;;;9.43;6.93;;;5.50;99.90;;;;;;6204452;28;20475;-63
2020/12/19 10:02:13;;;;;;;8.93;7.17;;;5.50;99.90;;;;;;6214496;28;20518;-62
2020/12/19 10:05:17;;;;;;;8.13;6.73;;;5.50;99.90;;;;;;6214144;28;20480;-66
2020/12/19 10:08:19;;;;;;;9.03;7.90;;;5.60;99.90;;;;;;6208330;28;20473;-61
2020/12/19 10:11:22;;;;;;;9.23;8.27;;;5.50;99.90;;;;;;6203942;28;20479;-61
2020/12/19 10:14:24;;;;;;;9.20;7.90;;;5.40;99.90;;;;;;6203847;28;20469;-62
2020/12/19 10:17:27;;;;;;;10.10;8.00;;;5.30;99.90;;;;;;6203867;28;20489;-60
2020/12/19 10:20:30;;;;;;;9.80;8.37;;;5.30;99.90;;;;;;6199115;28;20932;-61
2020/12/19 10:23:34;;;;;;;10.97;9.20;;;5.20;99.90;;;;;;6203927;28;20473;-61
2020/12/19 10:26:36;;;;;;;11.93;8.60;;;5.20;99.90;;;;;;6203235;28;20469;-60
2020/12/19 10:29:39;;;;;;;9.20;7.90;;;5.10;99.90;;;;;;6203517;28;20484;-60
2020/12/19 10:32:41;;;;;;;12.07;7.63;;;5.10;99.90;;;;;;6203809;28;20461;-60
2020/12/19 10:35:46;;;;;;;11.40;8.87;;;5.10;99.90;;;;;;6203083;28;20552;-60
2020/12/19 10:38:48;;;;;;;12.47;9.13;;;5.10;99.90;;;;;;6203271;28;20473;-61
2020/12/19 10:41:50;;;;;;;11.23;8.43;;;5.10;99.90;;;;;;6203518;28;20481;-60
2020/12/19 10:44:53;;;;;;;12.93;9.40;;;5.10;99.90;;;;;;6203448;28;20481;-60
2020/12/19 10:47:55;;;;;;;13.00;8.47;;;5.10;99.90;;;;;;6203598;28;20484;-60
2020/12/19 10:50:58;;;;;;;10.87;9.00;;;5.10;99.90;;;;;;6203186;28;20552;-61
2020/12/19 10:54:01;;;;;;;9.93;8.33;;;5.00;99.90;;;;;;6203369;28;20611;-62
2020/12/19 10:57:03;;;;;;;13.37;10.33;;;5.00;99.90;;;;;;6202997;28;20487;-61
2020/12/19 11:00:06;;;;;;;11.03;8.90;;;5.10;99.90;;;;;;6203172;28;20477;-62
2020/12/19 11:03:08;;;;;;;12.00;7.80;;;5.10;99.90;;;;;;6202887;28;20473;-61
2020/12/19 11:06:19;;;;;;;11.20;8.23;;;4.90;99.90;;;;;;6203077;28;20479;-60
2020/12/19 11:09:22;;;;;;;11.73;9.20;;;4.90;99.90;;;;;;6202692;28;21004;-61
2020/12/19 11:12:24;;;;;;;11.57;8.97;;;4.80;99.90;;;;;;6202573;28;20488;-60
2020/12/19 11:15:27;;;;;;;11.87;9.97;;;4.70;99.90;;;;;;6202716;28;20964;-63
2020/12/19 11:18:29;;;;;;;12.07;8.67;;;4.70;99.90;;;;;;6202664;28;20484;-61
2020/12/19 11:21:32;;;;;;;10.53;8.27;;;4.80;99.90;;;;;;6202796;28;20481;-62
2020/12/19 11:24:34;;;;;;;16.27;11.47;;;4.80;99.90;;;;;;6202272;28;20486;-63
2020/12/19 11:27:36;;;;;;;14.13;10.23;;;4.90;99.90;;;;;;6202187;28;20483;-60
2020/12/19 11:30:39;;;;;;;13.03;9.37;;;5.00;99.90;;;;;;6202384;28;20484;-60
2020/12/19 11:33:41;;;;;;;13.03;8.63;;;5.10;99.90;;;;;;6202190;28;20612;-61
2020/12/19 11:36:49;;;;;;;11.03;8.30;;;5.20;99.90;;;;;;6202177;28;20477;-61
2020/12/19 11:39:53;;;;;;;13.43;9.60;;;5.20;99.90;;;;;;6202086;28;20815;-61
2020/12/19 11:42:55;;;;;;;13.40;8.50;;;5.30;99.90;;;;;;6202091;28;20561;-61
2020/12/19 11:45:57;;;;;;;11.57;9.20;;;5.30;99.90;;;;;;6202303;28;20512;-61
2020/12/19 11:49:00;;;;;;;12.03;9.63;;;5.30;99.90;;;;;;6201698;28;20619;-62
2020/12/19 11:52:03;;;;;;;12.47;9.13;;;5.30;99.90;;;;;;6201607;28;20477;-62
2020/12/19 11:55:06;;;;;;;12.43;8.90;;;5.30;99.90;;;;;;6202046;28;20488;-62
2020/12/19 11:58:08;;;;;;;13.40;9.83;;;5.30;99.90;;;;;;6201558;28;20472;-62
2020/12/19 12:01:10;;;;;;;12.73;10.00;;;5.30;99.90;;;;;;6201374;28;20484;-61
2020/12/19 12:04:12;;;;;;;13.90;10.17;;;5.30;99.90;;;;;;6201433;28;20821;-62
2020/12/19 12:07:15;;;;;;;16.10;10.10;;;5.40;99.90;;;;;;6201338;28;20504;-61
2020/12/19 12:10:17;;;;;;;11.43;8.07;;;5.40;99.90;;;;;;6201038;28;20489;-61
2020/12/19 12:13:19;;;;;;;11.27;9.70;;;5.40;99.90;;;;;;6201136;28;20477;-61
2020/12/19 12:16:22;;;;;;;13.20;9.63;;;5.30;99.90;;;;;;6201583;28;20991;-61
2020/12/19 12:19:25;;;;;;;11.83;8.70;;;5.30;99.90;;;;;;6200560;28;20499;-61
2020/12/19 12:22:28;;;;;;;13.50;10.23;;;5.40;99.90;;;;;;6201364;28;20927;-60
2020/12/19 12:25:32;;;;;;;13.17;8.80;;;5.40;99.90;;;;;;6200925;28;20777;-61
2020/12/19 12:28:34;;;;;;;11.23;9.13;;;5.40;99.90;;;;;;6191751;28;20784;-62
2020/12/19 12:31:41;;;;;;;12.93;9.60;;;5.50;99.90;;;;;;6200415;28;20489;-61
2020/12/19 12:34:44;;;;;;;13.57;9.87;;;5.50;99.90;;;;;;6210906;28;20487;-61
2020/12/19 12:37:47;;;;;;;14.03;11.37;;;5.50;99.90;;;;;;6210258;28;20463;-60
2020/12/19 12:40:50;;;;;;;16.00;9.70;;;5.60;99.90;;;;;;6212778;28;20468;-60
2020/12/19 12:43:52;;;;;;;16.83;10.43;;;5.50;99.90;;;;;;6208335;28;20465;-62
2020/12/19 12:46:54;;;;;;;10.03;8.20;;;5.50;99.90;;;;;;6212572;28;20460;-61
2020/12/19 12:49:57;;;;;;;11.93;9.77;;;5.50;99.90;;;;;;6210800;28;20479;-61
2020/12/19 12:53:00;;;;;;;15.07;9.70;;;5.50;99.90;;;;;;6213124;28;20974;-60
2020/12/19 12:56:02;;;;;;;13.20;9.60;;;5.50;99.90;;;;;;6210672;28;20479;-60
2020/12/19 12:59:04;;;;;;;12.50;9.33;;;5.50;99.90;;;;;;6211044;28;20567;-60
2020/12/19 13:02:06;;;;;;;14.70;9.60;;;5.40;99.90;;;;;;6213338;28;20483;-60
2020/12/19 13:05:09;;;;;;;15.67;10.07;;;5.40;99.90;;;;;;6208318;28;20539;-60
2020/12/19 13:08:12;;;;;;;12.60;10.90;;;5.40;99.90;;;;;;6211678;28;20484;-60
2020/12/19 13:11:18;;;;;;;16.60;9.63;;;5.40;99.90;;;;;;6212376;28;20603;-60
2020/12/19 13:14:23;;;;;;;15.50;10.03;;;5.30;99.90;;;;;;6207218;28;20948;-62
2020/12/19 13:17:25;;;;;;;15.90;10.83;;;5.40;99.90;;;;;;6207720;28;20488;-61
2020/12/19 13:20:28;;;;;;;14.50;11.40;;;5.40;99.90;;;;;;6213108;28;20468;-62
2020/12/19 13:23:31;;;;;;;17.37;10.07;;;5.40;99.90;;;;;;6218084;28;20472;-60
2020/12/19 13:26:34;;;;;;;15.17;11.30;;;5.40;99.90;;;;;;6211815;28;20469;-62
2020/12/19 13:29:38;;;;;;;14.20;10.57;;;5.40;99.90;;;;;;6205494;28;20473;-62
2020/12/19 13:32:41;;;;;;;13.20;9.70;;;5.50;99.90;;;;;;6199884;28;20622;-61
2020/12/19 13:35:44;;;;;;;13.07;10.63;;;5.40;99.90;;;;;;6199959;28;20478;-61
2020/12/19 13:38:48;;;;;;;12.67;9.63;;;5.40;99.90;;;;;;6200064;28;20588;-62
2020/12/19 13:41:54;;;;;;;13.40;9.97;;;5.40;99.90;;;;;;6200999;28;20500;-63
2020/12/19 13:44:57;;;;;;;13.43;9.47;;;5.50;99.90;;;;;;6204569;28;20484;-62
2020/12/19 13:48:01;;;;;;;12.13;10.10;;;5.50;99.90;;;;;;6204273;28;20469;-61
2020/12/19 13:51:04;;;;;;;10.97;8.60;;;5.50;99.90;;;;;;6203950;28;20481;-62
2020/12/19 13:54:09;;;;;;;11.80;8.97;;;5.50;99.90;;;;;;6204186;28;20492;-61
2020/12/19 13:57:12;;;;;;;12.20;9.83;;;5.50;99.90;;;;;;6204673;28;20487;-61
2020/12/19 14:00:15;;;;;;;10.33;8.23;;;5.60;99.90;;;;;;6204519;28;20479;-66
2020/12/19 14:03:18;;;;;;;13.83;10.00;;;5.60;99.90;;;;;;6204112;28;20981;-65
2020/12/19 14:06:21;;;;;;;13.13;8.67;;;5.60;99.90;;;;;;6204250;28;20476;-64
2020/12/19 14:09:25;;;;;;;10.13;8.97;;;5.60;99.90;;;;;;6206563;28;20515;-63
2020/12/19 14:12:28;;;;;;;15.10;10.03;;;5.60;99.90;;;;;;6204071;28;20487;-64
2020/12/19 14:15:31;;;;;;;12.50;9.20;;;5.60;99.90;;;;;;6194933;28;20546;-68
2020/12/19 14:18:34;;;;;;;10.17;8.97;;;5.50;99.90;;;;;;6179542;28;20490;-67
2020/12/19 14:21:39;;;;;;;11.57;9.30;;;5.50;99.90;;;;;;6179434;28;20872;-65
2020/12/19 14:24:45;;;;;;;12.90;10.13;;;5.40;99.90;;;;;;6179791;28;20485;-64
2020/12/19 14:27:48;;;;;;;12.80;10.23;;;5.40;99.90;;;;;;6179564;28;20481;-64
2020/12/19 14:30:53;;;;;;;12.33;10.10;;;5.40;99.90;;;;;;6179896;28;20482;-66
2020/12/19 14:33:56;;;;;;;15.60;10.70;;;5.40;99.90;;;;;;6179756;28;20693;-67
2020/12/19 14:36:58;;;;;;;11.80;10.23;;;5.40;99.90;;;;;;6197379;28;20459;-66
2020/12/19 14:40:05;;;;;;;12.93;9.53;;;5.40;99.90;;;;;;6208281;28;20296;-66
2020/12/19 14:43:08;;;;;;;18.63;10.87;;;5.50;99.90;;;;;;6208833;28;20563;-64
2020/12/19 14:46:16;;;;;;;11.40;10.20;;;5.50;99.90;;;;;;6210421;28;20913;-66
2020/12/19 14:49:19;;;;;;;11.87;9.63;;;5.50;99.90;;;;;;6203462;28;20888;-67
2020/12/19 14:52:23;;;;;;;11.03;9.30;;;5.40;99.90;;;;;;6202864;28;20495;-66
2020/12/19 14:55:26;;;;;;;11.93;9.40;;;5.40;99.90;;;;;;6203510;28;20511;-60
2020/12/19 14:58:30;;;;;;;12.73;9.43;;;5.40;99.90;;;;;;6204972;28;20441;-66
2020/12/19 15:01:36;;;;;;;11.17;9.57;;;5.40;99.90;;;;;;6209817;28;20516;-65
2020/12/19 15:04:39;;;;;;;11.97;9.83;;;5.30;99.90;;;;;;6210139;28;20958;-66
2020/12/19 15:07:42;;;;;;;14.30;10.70;;;5.30;99.90;;;;;;6208921;28;20531;-65
2020/12/19 15:10:46;;;;;;;10.77;8.63;;;5.40;99.90;;;;;;6207224;28;20467;-66
2020/12/19 15:13:51;;;;;;;14.43;10.50;;;5.30;99.90;;;;;;6204715;28;20544;-67
2020/12/19 15:16:55;;;;;;;15.50;12.10;;;5.30;99.90;;;;;;6202230;28;20917;-67
2020/12/19 15:19:58;;;;;;;12.60;9.63;;;5.40;99.90;;;;;;6203022;28;20472;-66
2020/12/19 15:23:03;;;;;;;11.30;8.57;;;5.30;99.90;;;;;;6207190;28;20469;-65
2020/12/19 15:26:07;;;;;;;15.33;11.00;;;5.30;99.90;;;;;;6208078;28;20488;-66
2020/12/19 15:29:10;;;;;;;12.10;9.10;;;5.30;99.90;;;;;;6203386;28;20640;-65
2020/12/19 15:32:15;;;;;;;11.43;9.03;;;5.20;99.90;;;;;;6203601;28;20808;-65
2020/12/19 15:35:17;;;;;;;11.10;9.07;;;5.20;99.90;;;;;;6207970;28;20496;-66
2020/12/19 15:38:20;;;;;;;13.73;9.00;;;5.20;99.90;;;;;;6209298;28;20469;-66
2020/12/19 15:41:23;;;;;;;12.17;9.63;;;5.30;99.90;;;;;;6198851;28;20477;-66
2020/12/19 15:44:29;;;;;;;13.93;9.50;;;5.30;99.90;;;;;;6211508;28;20505;-66
2020/12/19 15:47:32;;;;;;;12.63;10.50;;;5.30;99.90;;;;;;6208018;28;20473;-66
2020/12/19 15:50:35;;;;;;;16.13;11.00;;;5.30;99.90;;;;;;6206171;28;20465;-66
2020/12/19 15:53:37;;;;;;;13.97;10.60;;;5.40;99.90;;;;;;6204938;28;20477;-66